Time;durP1;ratioP1;P1;durP2;ratioP2;P2;SDS_P1;SDS_P2;PMS_P1;PMS_P2;Temp;Humidity;BMP_temperature;BMP_pressure;BME280_temperature;BME280_humidity;BME280_pressure;Samples;Min_cycle;Max_cycle;Signal;HPM_P1;HPM_P2
2022/04/22 00:04:00;;;;;;;7.20;6.60;;;12.40;24.90;;;;;;10387569;28;20400;-74
2022/04/22 00:09:03;;;;;;;6.87;6.27;;;12.40;25.20;;;;;;10388385;28;20233;-73
2022/04/22 00:14:07;;;;;;;7.50;6.80;;;12.30;24.90;;;;;;10387267;28;20225;-74
2022/04/22 00:19:11;;;;;;;7.73;7.03;;;12.20;24.90;;;;;;10387823;28;20225;-73
2022/04/22 00:24:14;;;;;;;9.87;6.80;;;12.20;25.30;;;;;;10378639;28;20234;-74
2022/04/22 00:29:18;;;;;;;7.67;6.97;;;12.10;25.10;;;;;;10394547;28;20226;-75
2022/04/22 00:34:23;;;;;;;7.77;7.07;;;12.00;25.20;;;;;;10383717;28;25473;-74
2022/04/22 00:39:26;;;;;;;8.33;7.63;;;11.90;25.60;;;;;;10391674;28;20229;-73
2022/04/22 00:44:30;;;;;;;8.00;7.30;;;11.90;25.40;;;;;;10388911;28;20237;-73
2022/04/22 00:49:35;;;;;;;8.07;7.37;;;11.90;25.40;;;;;;10383402;28;20628;-73
2022/04/22 00:54:38;;;;;;;8.33;7.63;;;11.80;25.80;;;;;;10379269;28;20302;-74
2022/04/22 00:59:42;;;;;;;7.93;7.23;;;11.80;25.50;;;;;;10381106;28;20257;-73
2022/04/22 01:10:08;;;;;;;8.07;7.37;;;11.70;25.90;;;;;;10387882;28;20245;-74
2022/04/22 01:15:11;;;;;;;8.37;7.67;;;11.60;25.60;;;;;;10387006;28;20234;-74
2022/04/22 01:20:16;;;;;;;8.93;8.03;;;11.50;25.60;;;;;;10386050;28;20726;-74
2022/04/22 01:25:21;;;;;;;8.90;8.10;;;11.50;25.90;;;;;;10390761;28;20609;-74
2022/04/22 01:30:25;;;;;;;9.07;8.33;;;11.40;26.00;;;;;;10383406;28;20234;-75
2022/04/22 01:35:28;;;;;;;8.57;7.77;;;11.30;25.80;;;;;;10377414;28;20236;-76
2022/04/22 01:40:33;;;;;;;9.10;8.27;;;11.30;25.90;;;;;;10380723;28;20230;-75
2022/04/22 01:45:37;;;;;;;8.53;7.73;;;11.20;26.20;;;;;;10383704;28;20229;-76
2022/04/22 01:50:40;;;;;;;9.53;8.53;;;11.20;26.00;;;;;;10387105;28;20230;-76
2022/04/22 01:55:44;;;;;;;9.00;8.07;;;11.10;26.10;;;;;;10388184;28;20234;-75
2022/04/22 02:00:48;;;;;;;9.03;8.13;;;11.00;26.40;;;;;;10381214;28;20317;-76
2022/04/22 02:05:51;;;;;;;9.50;8.60;;;11.00;26.20;;;;;;10392761;28;20221;-76
2022/04/22 02:10:56;;;;;;;8.90;8.10;;;10.90;26.30;;;;;;10384664;28;20221;-77
2022/04/22 02:15:59;;;;;;;9.37;8.57;;;10.80;26.70;;;;;;10377601;28;20261;-75
2022/04/22 02:21:02;;;;;;;8.03;7.33;;;10.80;26.50;;;;;;10378583;28;20256;-76
2022/04/22 02:26:07;;;;;;;7.83;7.10;;;10.70;26.40;;;;;;10381670;28;20229;-75
2022/04/22 02:31:12;;;;;;;9.90;8.93;;;10.70;26.80;;;;;;10378338;28;20587;-76
2022/04/22 02:36:16;;;;;;;9.53;8.70;;;10.70;26.90;;;;;;10386354;28;20778;-75
2022/04/22 02:46:42;;;;;;;9.83;8.93;;;10.70;27.00;;;;;;10382723;28;20229;-76
2022/04/22 02:51:45;;;;;;;10.33;9.33;;;10.70;26.90;;;;;;10384453;28;20225;-75
2022/04/22 02:56:50;;;;;;;10.47;9.37;;;10.60;27.00;;;;;;10391361;28;20244;-75
2022/04/22 03:01:54;;;;;;;9.97;9.17;;;10.60;27.20;;;;;;10393892;28;20236;-75
2022/04/22 03:06:58;;;;;;;10.23;9.13;;;10.60;27.20;;;;;;10389196;28;20229;-76
2022/04/22 03:12:02;;;;;;;9.30;8.50;;;10.60;27.00;;;;;;10392520;28;20562;-75
2022/04/22 03:17:06;;;;;;;10.37;9.47;;;10.60;27.30;;;;;;10394199;28;20234;-75
2022/04/22 03:22:09;;;;;;;10.10;9.20;;;10.60;27.20;;;;;;10395583;28;20230;-75
2022/04/22 03:27:14;;;;;;;11.00;10.00;;;10.50;27.20;;;;;;10394959;28;20576;-75
2022/04/22 03:32:17;;;;;;;10.33;9.37;;;10.50;27.50;;;;;;10390406;28;20224;-75
2022/04/22 03:37:20;;;;;;;11.57;10.50;;;10.50;27.20;;;;;;10388352;28;20238;-75
2022/04/22 03:42:25;;;;;;;11.23;10.23;;;10.50;27.30;;;;;;10385893;28;20683;-75
2022/04/22 03:47:28;;;;;;;12.80;11.50;;;10.50;27.70;;;;;;10388626;28;20236;-75
2022/04/22 03:52:31;;;;;;;11.57;10.47;;;10.50;27.50;;;;;;10380368;28;20225;-75
2022/04/22 04:02:56;;;;;;;11.73;10.63;;;10.40;27.70;;;;;;10386300;28;20236;-76
2022/04/22 04:08:00;;;;;;;11.27;10.33;;;10.40;27.40;;;;;;10393468;28;20225;-75
2022/04/22 04:18:29;;;;;;;13.30;12.10;;;10.30;27.80;;;;;;10383072;28;20740;-75
2022/04/22 04:23:33;;;;;;;12.23;11.13;;;10.30;27.90;;;;;;10384277;28;20237;-75
2022/04/22 04:28:38;;;;;;;11.60;10.50;;;10.30;27.70;;;;;;10383367;28;20226;-75
2022/04/22 04:33:42;;;;;;;12.70;11.50;;;10.30;28.30;;;;;;10388788;28;20595;-76
2022/04/22 04:38:51;;;;;;;13.43;12.03;;;10.20;27.80;;;;;;10380728;28;20710;-76
2022/04/22 04:43:56;;;;;;;13.30;12.10;;;10.20;27.70;;;;;;10391637;28;20715;-76
2022/04/22 04:49:01;;;;;;;12.90;11.70;;;10.10;28.10;;;;;;10388326;28;20230;-76
2022/04/22 04:54:05;;;;;;;13.33;12.00;;;10.00;27.70;;;;;;10383027;28;20744;-76
2022/04/22 04:59:09;;;;;;;12.57;11.47;;;10.00;27.90;;;;;;10391989;28;20228;-77
2022/04/22 05:04:12;;;;;;;13.70;12.50;;;9.90;29.50;;;;;;10381807;28;20840;-76
2022/04/22 05:09:15;;;;;;;13.60;12.30;;;9.90;28.90;;;;;;10377257;28;20222;-76
2022/04/22 05:14:20;;;;;;;13.77;12.43;;;9.90;29.00;;;;;;10384520;28;20226;-76
2022/04/22 05:19:24;;;;;;;13.43;12.20;;;9.90;29.00;;;;;;10381585;28;20634;-78
2022/04/22 05:24:27;;;;;;;11.07;10.07;;;9.80;28.90;;;;;;10386783;28;20230;-78
2022/04/22 05:34:52;;;;;;;12.70;11.57;;;9.90;29.40;;;;;;10386672;28;20710;-77
2022/04/22 05:39:55;;;;;;;12.97;11.67;;;9.90;29.10;;;;;;10377969;28;20233;-77
2022/04/22 05:44:59;;;;;;;13.17;11.93;;;9.90;29.70;;;;;;10377563;28;20234;-76
2022/04/22 05:50:05;;;;;;;14.50;13.17;;;10.00;29.50;;;;;;10382248;28;20224;-76
2022/04/22 05:55:10;;;;;;;13.43;12.10;;;10.10;29.40;;;;;;10384025;28;20234;-76
2022/04/22 06:00:18;;;;;;;13.77;12.47;;;10.10;29.90;;;;;;10385534;28;20229;-75
2022/04/22 06:05:23;;;;;;;14.37;13.07;;;10.20;30.20;;;;;;10378028;28;20291;-76
2022/04/22 06:10:32;;;;;;;13.50;12.30;;;10.30;30.00;;;;;;10381578;28;20225;-75
2022/04/22 06:15:37;;;;;;;14.67;13.33;;;10.40;29.80;;;;;;10372569;28;20236;-76
2022/04/22 06:20:40;;;;;;;13.53;12.30;;;10.40;30.30;;;;;;10374661;28;20221;-76
2022/04/22 06:25:46;;;;;;;13.73;12.53;;;10.50;30.00;;;;;;10380977;28;20222;-75
2022/04/22 06:30:51;;;;;;;14.23;12.87;;;10.60;30.10;;;;;;10380776;28;20222;-76
2022/04/22 06:35:55;;;;;;;14.20;12.90;;;10.70;31.00;;;;;;10390214;28;20226;-75
2022/04/22 06:46:21;;;;;;;13.93;12.63;;;10.90;30.70;;;;;;10385668;28;20229;-75
2022/04/22 06:51:25;;;;;;;14.03;12.73;;;11.10;31.30;;;;;;10378843;28;20226;-75
2022/04/22 06:56:29;;;;;;;13.37;12.17;;;11.20;31.10;;;;;;10384350;28;20256;-76
2022/04/22 07:01:34;;;;;;;13.93;12.53;;;11.30;31.70;;;;;;10387190;28;20226;-76
2022/04/22 07:06:50;;;;;;;13.87;12.47;;;11.50;31.50;;;;;;10376065;28;20355;-76
2022/04/22 07:11:55;;;;;;;13.50;12.20;;;11.60;31.00;;;;;;10377787;28;20718;-75
2022/04/22 07:17:01;;;;;;;12.70;11.60;;;11.80;30.90;;;;;;10382338;28;20234;-76
2022/04/22 07:22:05;;;;;;;12.50;11.37;;;11.90;31.20;;;;;;10387653;28;20232;-76
2022/04/22 07:27:08;;;;;;;13.07;11.83;;;12.10;30.90;;;;;;10383033;28;20630;-76
2022/04/22 07:32:15;;;;;;;13.60;12.30;;;12.20;30.80;;;;;;10384037;28;20222;-76
2022/04/22 07:37:19;;;;;;;12.53;11.33;;;12.30;31.30;;;;;;10384598;28;20728;-76
2022/04/22 07:42:22;;;;;;;13.43;12.20;;;12.50;30.90;;;;;;10380795;28;20793;-76
2022/04/22 07:47:27;;;;;;;12.70;11.60;;;12.70;31.10;;;;;;10380274;28;20230;-76
2022/04/22 07:52:30;;;;;;;12.80;11.47;;;12.80;31.10;;;;;;10382606;28;20225;-76
2022/04/22 07:57:33;;;;;;;13.33;12.07;;;13.00;30.40;;;;;;10383466;28;20229;-75
2022/04/22 08:02:40;;;;;;;12.70;11.60;;;13.20;30.50;;;;;;10382815;28;20237;-76
2022/04/22 08:07:43;;;;;;;13.00;11.90;;;13.40;30.80;;;;;;10379629;28;20229;-77
2022/04/22 08:12:47;;;;;;;12.27;11.10;;;13.60;30.90;;;;;;10382545;28;20226;-78
2022/04/22 08:17:52;;;;;;;10.90;9.90;;;13.80;31.10;;;;;;10377924;28;20254;-75
2022/04/22 08:22:55;;;;;;;12.23;10.87;;;14.00;30.70;;;;;;10382657;28;20612;-75
2022/04/22 08:27:59;;;;;;;12.00;10.97;;;14.20;30.40;;;;;;10381131;28;20233;-76
2022/04/22 08:33:04;;;;;;;12.13;11.00;;;14.30;30.10;;;;;;10378548;28;20222;-76
2022/04/22 08:38:07;;;;;;;11.57;10.57;;;14.50;30.40;;;;;;10377889;28;20752;-76
2022/04/22 08:43:13;;;;;;;11.47;10.47;;;14.70;30.20;;;;;;10374344;28;20536;-76
2022/04/22 08:53:40;;;;;;;10.57;9.67;;;15.00;30.10;;;;;;10372440;28;20221;-76
2022/04/22 08:58:43;;;;;;;9.83;9.00;;;15.20;29.60;;;;;;10374670;28;20253;-76
2022/04/22 09:03:48;;;;;;;11.00;10.10;;;15.40;29.40;;;;;;10385224;28;21018;-76
2022/04/22 09:08:52;;;;;;;11.30;10.20;;;15.70;29.80;;;;;;10379502;28;20936;-76
2022/04/22 09:13:55;;;;;;;10.50;9.60;;;15.90;29.60;;;;;;10376536;28;20218;-74
2022/04/22 09:19:02;;;;;;;10.60;9.70;;;16.10;29.10;;;;;;10375616;28;20234;-76
2022/04/22 09:24:13;;;;;;;9.67;8.77;;;16.40;29.00;;;;;;10374452;28;20229;-76
2022/04/22 09:29:16;;;;;;;10.37;9.23;;;16.60;28.50;;;;;;10383354;28;20222;-76
2022/04/22 09:34:33;;;;;;;9.37;8.47;;;16.70;28.90;;;;;;10379620;28;20218;-75
2022/04/22 09:44:57;;;;;;;9.13;8.33;;;17.00;28.30;;;;;;10375189;28;20729;-76
2022/04/22 09:50:05;;;;;;;10.00;9.20;;;17.20;28.10;;;;;;10377126;28;20229;-76
2022/04/22 09:55:10;;;;;;;10.20;9.20;;;17.30;28.00;;;;;;10374322;28;20225;-76
2022/04/22 10:00:15;;;;;;;9.53;8.83;;;17.40;28.00;;;;;;10373727;28;20276;-76
2022/04/22 10:05:22;;;;;;;10.10;9.20;;;17.50;27.80;;;;;;10379531;28;20248;-76
2022/04/22 10:10:30;;;;;;;8.83;8.23;;;17.60;27.30;;;;;;10380031;28;20703;-76
2022/04/22 10:15:39;;;;;;;8.50;7.80;;;17.70;27.10;;;;;;10375433;28;20226;-76
2022/04/22 10:20:44;;;;;;;8.93;8.13;;;17.80;27.20;;;;;;10376555;28;20229;-73
2022/04/22 10:25:48;;;;;;;8.33;7.73;;;17.80;27.00;;;;;;10380374;28;20225;-80
2022/04/22 10:30:54;;;;;;;8.33;7.70;;;17.80;27.30;;;;;;10373929;28;20721;-73
2022/04/22 10:36:00;;;;;;;8.73;8.03;;;17.90;27.00;;;;;;10369211;28;20238;-73
2022/04/22 10:41:05;;;;;;;7.87;7.27;;;17.90;27.30;;;;;;10370575;28;20230;-73
2022/04/22 10:52:02;;;;;;;8.40;7.60;;;18.00;26.50;;;;;;10348829;28;20225;-76
2022/04/22 10:57:16;;;;;;;7.93;7.13;;;18.20;27.20;;;;;;10376372;28;20707;-76
2022/04/22 11:02:40;;;;;;;8.00;7.30;;;18.30;26.20;;;;;;10378349;28;20253;-73
2022/04/22 11:07:56;;;;;;;8.30;7.70;;;18.40;26.10;;;;;;10376472;28;20229;-74
2022/04/22 11:13:00;;;;;;;7.83;7.23;;;18.40;26.00;;;;;;10377839;28;20228;-73
2022/04/22 11:18:03;;;;;;;7.87;6.97;;;18.50;26.40;;;;;;10379593;28;20249;-73
2022/04/22 11:23:12;;;;;;;7.33;6.73;;;18.50;26.20;;;;;;10383749;28;20232;-73
2022/04/22 11:28:17;;;;;;;8.40;7.70;;;18.60;26.50;;;;;;10391125;28;20690;-77
2022/04/22 11:33:22;;;;;;;7.93;7.33;;;18.60;26.20;;;;;;10379364;28;21688;-76
2022/04/22 11:38:27;;;;;;;7.17;6.67;;;18.60;26.10;;;;;;10382145;28;20234;-75
2022/04/22 11:43:30;;;;;;;8.60;7.90;;;18.60;26.00;;;;;;10380113;28;20221;-75
2022/04/22 11:48:33;;;;;;;7.53;6.90;;;18.70;26.20;;;;;;10382733;28;20229;-74
2022/04/22 11:53:38;;;;;;;8.07;7.37;;;18.80;26.30;;;;;;10386653;28;20229;-75
2022/04/22 11:58:41;;;;;;;8.53;7.83;;;18.90;26.10;;;;;;10391954;28;20240;-77
2022/04/22 12:09:07;;;;;;;8.40;7.77;;;19.10;26.00;;;;;;10387200;28;20761;-77
2022/04/22 12:14:11;;;;;;;8.40;7.70;;;19.20;25.60;;;;;;10387038;28;20264;-75
2022/04/22 12:19:14;;;;;;;8.20;7.50;;;19.20;26.20;;;;;;10389660;28;20225;-76
2022/04/22 12:24:20;;;;;;;8.43;7.73;;;19.20;25.70;;;;;;10390918;28;20225;-76
2022/04/22 12:29:24;;;;;;;7.60;7.00;;;19.30;25.80;;;;;;10383576;28;20231;-77
2022/04/22 12:34:30;;;;;;;9.10;8.20;;;19.30;25.80;;;;;;10381857;28;20257;-76
2022/04/22 12:39:38;;;;;;;9.30;8.53;;;19.40;25.60;;;;;;10378340;28;20301;-76
2022/04/22 12:52:07;;;;;;;8.60;7.80;;;19.40;25.60;;;;;;10385422;28;20234;-76
2022/04/22 12:55:34;;;;;;;8.17;7.57;;;19.70;25.60;;;;;;10383064;28;20230;-76
2022/04/22 13:00:37;;;;;;;8.33;7.57;;;19.80;25.30;;;;;;10380874;28;20714;-77
2022/04/22 13:05:41;;;;;;;7.87;7.10;;;19.90;25.70;;;;;;10381332;28;20733;-76
2022/04/22 13:10:47;;;;;;;8.17;7.57;;;20.00;25.40;;;;;;10357752;28;169528;-76
2022/04/22 13:15:51;;;;;;;7.03;6.53;;;20.10;25.40;;;;;;10381010;28;20777;-76
2022/04/22 13:20:55;;;;;;;7.80;7.20;;;20.20;25.40;;;;;;10382101;28;20225;-77
2022/04/22 13:26:00;;;;;;;7.57;6.97;;;20.30;25.60;;;;;;10378150;28;20230;-76
2022/04/22 13:31:03;;;;;;;7.70;7.10;;;20.40;25.30;;;;;;10379432;28;20217;-77
2022/04/22 13:36:10;;;;;;;8.10;7.33;;;20.40;25.60;;;;;;10385724;28;20252;-76
2022/04/22 13:41:14;;;;;;;7.43;6.73;;;20.50;24.90;;;;;;10378394;28;20218;-76
2022/04/22 13:57:01;;;;;;;6.53;5.93;;;20.60;25.20;;;;;;10383305;28;20226;-79
2022/04/22 14:02:04;;;;;;;5.73;5.13;;;20.60;24.70;;;;;;10375658;28;20601;-77
2022/04/22 14:07:08;;;;;;;6.53;5.27;;;20.70;25.00;;;;;;10384381;28;20261;-79
2022/04/22 14:12:12;;;;;;;5.90;5.43;;;20.70;24.90;;;;;;10382468;28;20656;-79
2022/04/22 14:17:16;;;;;;;5.37;4.87;;;20.80;24.40;;;;;;10381001;28;20230;-80
2022/04/22 14:22:19;;;;;;;5.57;5.17;;;20.80;24.50;;;;;;10383467;28;20711;-80
2022/04/22 14:27:24;;;;;;;5.13;4.73;;;20.80;24.40;;;;;;10384985;28;20713;-80
2022/04/22 14:32:27;;;;;;;5.37;4.97;;;20.70;24.20;;;;;;10376579;28;20226;-76
2022/04/22 14:37:30;;;;;;;5.17;4.77;;;20.70;24.30;;;;;;10384068;28;20230;-80
2022/04/22 14:42:35;;;;;;;5.17;4.77;;;20.70;24.30;;;;;;10382456;28;20574;-80
2022/04/22 14:47:38;;;;;;;6.40;5.07;;;20.80;24.10;;;;;;10387764;28;20237;-76
2022/04/22 14:52:43;;;;;;;5.10;4.70;;;20.70;24.30;;;;;;10384784;28;20228;-76
2022/04/22 14:57:48;;;;;;;6.10;5.50;;;20.70;24.30;;;;;;10386220;28;20257;-75
2022/04/22 15:02:51;;;;;;;5.47;5.07;;;20.70;24.00;;;;;;10391940;28;20599;-76
2022/04/22 15:07:55;;;;;;;4.83;4.53;;;20.70;24.20;;;;;;10386537;28;20744;-77
2022/04/22 15:13:00;;;;;;;5.03;4.70;;;20.80;24.00;;;;;;10390060;28;20870;-74
2022/04/22 15:28:46;;;;;;;5.10;4.80;;;20.90;24.30;;;;;;10385480;28;20226;-80
2022/04/22 15:33:49;;;;;;;5.37;4.97;;;20.80;23.90;;;;;;10385564;28;20992;-80
2022/04/22 15:38:56;;;;;;;5.87;4.67;;;20.80;24.10;;;;;;10389574;28;20309;-80
2022/04/22 15:44:04;;;;;;;5.73;5.33;;;20.70;24.00;;;;;;10380666;28;20230;-76
2022/04/22 15:49:07;;;;;;;5.80;5.20;;;20.70;23.90;;;;;;10386410;28;20249;-75
2022/04/22 15:54:10;;;;;;;5.63;5.23;;;20.60;24.10;;;;;;10385136;28;21411;-80
2022/04/22 15:59:15;;;;;;;5.13;4.73;;;20.50;24.10;;;;;;10382232;28;20222;-78
2022/04/22 16:04:18;;;;;;;4.77;4.47;;;20.50;24.00;;;;;;10381658;28;20248;-78
2022/04/22 16:09:21;;;;;;;5.20;4.80;;;20.40;24.10;;;;;;10383999;28;20729;-77
2022/04/22 16:19:46;;;;;;;5.60;5.13;;;20.30;24.40;;;;;;10385236;28;20232;-77
2022/04/22 16:24:52;;;;;;;6.10;5.60;;;20.20;24.20;;;;;;10381130;28;20256;-75
2022/04/22 16:29:56;;;;;;;5.43;5.03;;;20.20;24.30;;;;;;10379417;28;20232;-77
2022/04/22 16:34:59;;;;;;;5.87;4.60;;;20.10;24.40;;;;;;10379265;28;20229;-77
2022/04/22 16:40:03;;;;;;;5.30;4.80;;;20.00;24.50;;;;;;10385236;28;20229;-76
2022/04/22 16:45:11;;;;;;;5.40;4.83;;;20.00;24.50;;;;;;10390741;28;20237;-75
2022/04/22 16:50:15;;;;;;;5.90;5.37;;;20.10;24.30;;;;;;10387824;28;20229;-75
2022/04/22 16:55:18;;;;;;;5.87;5.43;;;20.10;24.50;;;;;;10390771;28;20605;-75
2022/04/22 17:00:23;;;;;;;7.23;6.70;;;20.00;24.40;;;;;;10384801;28;20231;-75
2022/04/22 17:05:26;;;;;;;7.43;6.83;;;20.00;24.30;;;;;;10383287;28;20234;-75
2022/04/22 17:10:30;;;;;;;7.73;6.93;;;20.00;24.50;;;;;;10379722;28;20236;-75
2022/04/22 17:26:15;;;;;;;8.27;7.57;;;20.00;24.30;;;;;;10383779;28;20244;-75
2022/04/22 17:31:20;;;;;;;8.37;7.67;;;19.80;24.30;;;;;;10382338;28;20233;-74
2022/04/22 17:36:23;;;;;;;8.10;7.40;;;19.70;24.30;;;;;;10376431;28;20237;-75
2022/04/22 17:41:31;;;;;;;8.23;7.53;;;19.70;24.50;;;;;;10381853;28;20222;-74
2022/04/22 17:52:09;;;;;;;7.83;7.23;;;19.50;24.50;;;;;;10261252;26;20230;-75
2022/04/22 17:57:12;;;;;;;8.50;7.70;;;19.40;24.50;;;;;;10342847;28;20235;-75
2022/04/22 18:02:21;;;;;;;8.40;7.70;;;19.40;24.60;;;;;;10341333;28;20597;-75
2022/04/22 18:07:48;;;;;;;7.83;7.20;;;19.40;24.80;;;;;;10347590;23;20323;-75
2022/04/22 18:33:07;;;;;;;8.43;7.60;;;19.10;24.70;;;;;;10274392;28;20219;-75
2022/04/22 19:16:48;;;;;;;2.87;2.67;;;17.90;25.90;;;;;;10128633;23;20226;-76
2022/04/22 19:21:52;;;;;;;2.80;2.60;;;17.60;26.40;;;;;;10380925;28;20236;-76
2022/04/22 19:26:55;;;;;;;2.83;2.60;;;17.40;26.00;;;;;;10382671;28;20221;-76
2022/04/22 19:32:01;;;;;;;2.83;2.63;;;17.20;26.10;;;;;;10385062;28;20608;-76
2022/04/22 19:42:25;;;;;;;3.63;3.33;;;16.70;26.70;;;;;;10384725;28;20245;-77
2022/04/22 19:47:30;;;;;;;3.17;2.97;;;16.50;26.80;;;;;;10385017;28;20226;-76
2022/04/22 19:52:34;;;;;;;3.40;3.20;;;16.50;27.20;;;;;;10382389;28;20313;-74
2022/04/22 19:57:37;;;;;;;3.60;3.40;;;16.40;27.20;;;;;;10387531;28;20222;-74
2022/04/22 20:02:42;;;;;;;3.27;3.07;;;16.20;27.00;;;;;;10381292;28;20233;-76
2022/04/22 20:07:45;;;;;;;3.57;3.37;;;16.10;27.60;;;;;;10385623;28;20648;-76
2022/04/22 20:12:49;;;;;;;3.30;3.10;;;16.00;27.40;;;;;;10383178;28;20230;-76
2022/04/22 20:17:54;;;;;;;3.73;3.53;;;15.80;27.30;;;;;;10378766;28;20321;-76
2022/04/22 20:22:57;;;;;;;3.93;3.73;;;15.70;27.80;;;;;;10383871;28;20625;-75
2022/04/22 20:28:00;;;;;;;4.43;4.13;;;15.60;27.60;;;;;;10382140;28;20243;-75
2022/04/22 20:33:05;;;;;;;5.10;4.80;;;15.50;27.80;;;;;;10380563;28;20215;-76
2022/04/22 20:43:33;;;;;;;5.80;5.40;;;15.20;28.60;;;;;;10366459;28;20236;-75
2022/04/22 20:48:38;;;;;;;6.20;5.80;;;14.90;28.50;;;;;;10378308;28;20230;-76
2022/04/22 20:53:50;;;;;;;6.53;6.03;;;14.80;29.10;;;;;;10377418;28;20237;-75
2022/04/22 20:58:53;;;;;;;5.90;5.50;;;14.70;28.80;;;;;;10369598;28;20225;-75
2022/04/22 21:03:58;;;;;;;6.43;6.03;;;14.70;28.80;;;;;;10373297;28;20237;-75
2022/04/22 21:09:01;;;;;;;7.10;6.60;;;14.70;29.30;;;;;;10370471;28;20329;-75
2022/04/22 21:14:04;;;;;;;8.10;7.50;;;14.70;29.20;;;;;;10378403;28;20293;-75
2022/04/22 21:19:09;;;;;;;7.50;6.90;;;14.60;29.10;;;;;;10379362;28;20701;-74
2022/04/22 21:24:15;;;;;;;7.67;7.17;;;14.60;29.70;;;;;;10380094;28;20230;-75
2022/04/22 21:29:18;;;;;;;7.83;7.30;;;14.60;29.50;;;;;;10377104;28;20261;-74
2022/04/22 21:34:22;;;;;;;7.53;7.03;;;14.50;29.40;;;;;;10376921;28;20234;-74
2022/04/22 21:39:26;;;;;;;8.13;7.53;;;14.40;30.00;;;;;;10376347;28;20232;-74
2022/04/22 21:44:29;;;;;;;8.70;8.00;;;14.30;29.80;;;;;;10377066;28;20221;-75
2022/04/22 21:49:34;;;;;;;8.20;7.50;;;14.20;29.70;;;;;;10378136;28;20332;-74
2022/04/22 21:54:37;;;;;;;8.03;7.43;;;14.10;30.10;;;;;;10372885;28;20232;-75
2022/04/22 21:59:41;;;;;;;8.80;8.10;;;14.10;29.90;;;;;;10375051;28;20310;-75
2022/04/22 22:04:47;;;;;;;8.57;7.90;;;14.10;29.70;;;;;;10376649;28;20314;-75
2022/04/22 22:09:50;;;;;;;8.57;7.87;;;14.10;30.20;;;;;;10371900;28;20228;-75
2022/04/22 22:14:53;;;;;;;8.40;7.70;;;14.00;29.90;;;;;;10374676;28;20318;-75
2022/04/22 22:19:58;;;;;;;7.30;6.70;;;14.00;29.80;;;;;;10379907;28;20218;-75
2022/04/22 22:25:04;;;;;;;8.20;7.60;;;14.00;30.00;;;;;;10375316;28;21002;-75
2022/04/22 22:30:08;;;;;;;8.17;7.53;;;14.10;29.80;;;;;;10376084;28;20234;-74
2022/04/22 22:35:13;;;;;;;7.77;7.17;;;14.10;29.80;;;;;;10376091;28;20249;-74
2022/04/22 22:40:17;;;;;;;6.80;6.30;;;14.10;30.00;;;;;;10377222;28;20819;-75
2022/04/22 22:45:20;;;;;;;7.33;6.83;;;14.10;29.70;;;;;;10380507;28;20705;-75
2022/04/22 22:50:24;;;;;;;7.37;6.77;;;14.10;29.70;;;;;;10379373;28;20237;-75
2022/04/22 22:55:28;;;;;;;6.90;6.40;;;14.10;30.00;;;;;;10379497;28;20538;-75
2022/04/22 23:00:31;;;;;;;6.37;5.97;;;14.00;29.60;;;;;;10379175;28;20588;-75
2022/04/22 23:05:36;;;;;;;5.70;5.30;;;13.90;29.60;;;;;;10392322;28;20228;-75
2022/04/22 23:10:40;;;;;;;6.03;5.63;;;13.80;30.00;;;;;;10388026;28;20725;-75
2022/04/22 23:15:46;;;;;;;6.23;5.73;;;13.80;29.70;;;;;;10387749;28;20310;-75
2022/04/22 23:20:52;;;;;;;5.90;5.50;;;13.80;29.70;;;;;;10386216;28;20230;-75
2022/04/22 23:25:56;;;;;;;5.30;5.00;;;13.80;29.90;;;;;;10390233;28;20214;-75
2022/04/22 23:30:59;;;;;;;5.50;5.10;;;13.80;29.60;;;;;;10385055;28;20236;-75
2022/04/22 23:36:04;;;;;;;5.43;5.07;;;13.70;30.20;;;;;;10382543;28;20221;-74
2022/04/22 23:41:07;;;;;;;5.20;4.80;;;13.80;30.60;;;;;;10381666;28;20484;-75
2022/04/22 23:46:10;;;;;;;5.70;5.30;;;13.80;29.60;;;;;;10386831;28;20600;-75
2022/04/22 23:51:16;;;;;;;4.80;4.50;;;13.80;29.60;;;;;;10377798;28;20225;-75
2022/04/22 23:56:19;;;;;;;4.90;4.60;;;13.80;29.70;;;;;;10380036;28;20608;-75
